createdAt,value
2018-01-24T00:01:54.556Z,100802
2018-01-24T00:04:23.089Z,100811
2018-01-24T00:06:51.605Z,100788
2018-01-24T00:09:20.817Z,100787
2018-01-24T00:11:50.812Z,100789
2018-01-24T00:14:19.292Z,100799
2018-01-24T00:16:47.781Z,100782
2018-01-24T00:19:16.313Z,100777
2018-01-24T00:21:44.912Z,100789
2018-01-24T00:24:13.430Z,100795
2018-01-24T00:26:41.949Z,100787
2018-01-24T00:29:11.311Z,100798
2018-01-24T00:31:40.925Z,100792
2018-01-24T00:34:11.046Z,100795
2018-01-24T00:36:40.470Z,100809
2018-01-24T00:39:09.164Z,100800
2018-01-24T00:41:38.249Z,100798
2018-01-24T00:44:06.957Z,100795
2018-01-24T00:46:35.665Z,100787
2018-01-24T00:49:04.728Z,100787
2018-01-24T00:51:34.020Z,100782
2018-01-24T00:54:02.952Z,100772
2018-01-24T00:56:32.046Z,100787
2018-01-24T00:59:00.733Z,100777
2018-01-24T01:01:29.236Z,100779
2018-01-24T01:03:58.184Z,100770
2018-01-24T01:06:26.632Z,100772
2018-01-24T01:08:55.120Z,100778
2018-01-24T01:11:23.894Z,100784
2018-01-24T01:13:52.783Z,100770
2018-01-24T01:16:21.572Z,100768
2018-01-24T01:18:50.505Z,100768
2018-01-24T01:21:19.201Z,100770
2018-01-24T01:23:47.649Z,100776
2018-01-24T01:26:16.185Z,100767
2018-01-24T01:28:44.852Z,100772
2018-01-24T01:31:13.388Z,100768
2018-01-24T01:33:41.999Z,100792
2018-01-24T01:36:10.529Z,100782
2018-01-24T01:38:39.721Z,100780
2018-01-24T01:41:08.175Z,100782
2018-01-24T01:43:37.646Z,100782
2018-01-24T01:46:07.181Z,100786
2018-01-24T01:48:35.734Z,100773
2018-01-24T01:51:05.166Z,100782
2018-01-24T01:53:33.879Z,100781
2018-01-24T01:56:02.967Z,100772
2018-01-24T01:58:31.842Z,100797
2018-01-24T02:01:00.633Z,100787
2018-01-24T02:03:29.754Z,100782
2018-01-24T02:05:58.413Z,100786
2018-01-24T02:08:27.372Z,100786
2018-01-24T02:10:56.460Z,100784
2018-01-24T02:13:26.303Z,100791
2018-01-24T02:15:54.802Z,100787
2018-01-24T02:18:23.265Z,100786
2018-01-24T02:20:51.713Z,100796
2018-01-24T02:23:20.406Z,100790
2018-01-24T02:25:49.483Z,100797
2018-01-24T02:28:18.013Z,100786
2018-01-24T02:30:46.782Z,100789
2018-01-24T02:33:15.251Z,100788
2018-01-24T02:35:45.680Z,100794
2018-01-24T02:38:28.153Z,100799
2018-01-24T02:40:56.708Z,100788
2018-01-24T02:43:25.188Z,100794
2018-01-24T02:45:53.976Z,100792
2018-01-24T02:48:22.488Z,100788
2018-01-24T02:50:51.310Z,100781
2018-01-24T02:53:19.862Z,100785
2018-01-24T02:55:48.315Z,100780
2018-01-24T02:58:16.892Z,100781
2018-01-24T03:00:46.050Z,100780
2018-01-24T03:03:16.144Z,100784
2018-01-24T03:05:45.012Z,100773
2018-01-24T03:08:13.446Z,100781
2018-01-24T03:10:42.072Z,100772
2018-01-24T03:13:11.400Z,100783
2018-01-24T03:15:40.086Z,100787
2018-01-24T03:18:08.992Z,100796
2018-01-24T03:20:37.461Z,100797
2018-01-24T03:23:05.885Z,100806
2018-01-24T03:25:35.068Z,100802
2018-01-24T03:28:03.969Z,100813
2018-01-24T03:30:32.717Z,100805
2018-01-24T03:33:01.200Z,100804
2018-01-24T03:35:29.654Z,100810
2018-01-24T03:37:58.466Z,100816
2018-01-24T03:40:27.183Z,100812
2018-01-24T03:42:57.146Z,100813
2018-01-24T03:45:25.961Z,100813
2018-01-24T03:47:54.546Z,100814
2018-01-24T03:50:22.998Z,100818
2018-01-24T03:52:51.510Z,100808
2018-01-24T03:55:19.969Z,100819
2018-01-24T03:57:48.776Z,100834
2018-01-24T04:00:17.556Z,100823
2018-01-24T04:02:46.080Z,100818
2018-01-24T04:05:14.788Z,100819
2018-01-24T04:07:43.452Z,100808
2018-01-24T04:10:11.933Z,100815
2018-01-24T04:12:41.385Z,100830
2018-01-24T04:15:10.134Z,100827
2018-01-24T04:17:39.342Z,100843
2018-01-24T04:20:08.637Z,100839
2018-01-24T04:22:37.962Z,100844
2018-01-24T04:25:06.964Z,100848
2018-01-24T04:27:35.412Z,100848
2018-01-24T04:30:04.361Z,100837
2018-01-24T04:32:33.047Z,100849
2018-01-24T04:35:02.557Z,100864
2018-01-24T04:37:32.460Z,100850
2018-01-24T04:40:01.403Z,100850
2018-01-24T04:42:30.675Z,100852
2018-01-24T04:44:59.220Z,100845
2018-01-24T04:47:27.905Z,100843
2018-01-24T04:49:56.500Z,100829
2018-01-24T04:52:24.932Z,100836
2018-01-24T04:54:53.364Z,100831
2018-01-24T04:57:21.877Z,100829
2018-01-24T04:59:50.680Z,100825
2018-01-24T05:02:19.745Z,100835
2018-01-24T05:04:48.276Z,100847
2018-01-24T05:07:17.698Z,100838
2018-01-24T05:09:46.637Z,100836
2018-01-24T05:12:15.509Z,100854
2018-01-24T05:14:44.377Z,100847
2018-01-24T05:17:13.061Z,100848
2018-01-24T05:19:42.569Z,100849
2018-01-24T05:22:11.308Z,100844
2018-01-24T05:24:40.461Z,100833
2018-01-24T05:27:09.255Z,100833
2018-01-24T05:29:37.760Z,100843
2018-01-24T05:32:07.010Z,100834
2018-01-24T05:34:35.856Z,100847
2018-01-24T05:37:04.525Z,100849
2018-01-24T05:39:33.341Z,100843
2018-01-24T05:42:02.005Z,100849
2018-01-24T05:44:30.481Z,100848
2018-01-24T05:47:00.602Z,100855
2018-01-24T05:49:29.405Z,100844
2018-01-24T05:51:58.059Z,100848
2018-01-24T05:54:26.648Z,100816
2018-01-24T05:56:55.153Z,100820
2018-01-24T05:59:23.580Z,100821
2018-01-24T06:01:52.024Z,100823
2018-01-24T06:04:20.895Z,100819
2018-01-24T06:06:49.865Z,100813
2018-01-24T06:09:18.888Z,100821
2018-01-24T06:11:48.224Z,100814
2018-01-24T06:14:17.409Z,100809
2018-01-24T06:16:45.868Z,100804
2018-01-24T06:19:14.305Z,100813
2018-01-24T06:21:42.729Z,100801
2018-01-24T06:24:11.277Z,100822
2018-01-24T06:26:40.256Z,100815
2018-01-24T06:29:09.970Z,100810
2018-01-24T06:31:38.678Z,100814
2018-01-24T06:34:07.618Z,100799
2018-01-24T06:36:36.132Z,100803
2018-01-24T06:39:05.337Z,100799
2018-01-24T06:41:33.854Z,100803
2018-01-24T06:44:02.722Z,100811
2018-01-24T06:46:31.460Z,100818
2018-01-24T06:49:00.931Z,100797
2018-01-24T06:51:29.386Z,100801
2018-01-24T06:53:58.044Z,100798
2018-01-24T06:56:27.502Z,100795
2018-01-24T06:58:56.392Z,100784
2018-01-24T07:01:25.183Z,100803
2018-01-24T07:03:53.869Z,100797
2018-01-24T07:06:22.345Z,100805
2018-01-24T07:08:50.809Z,100822
2018-01-24T07:11:19.425Z,100799
2018-01-24T07:14:53.569Z,100804
2018-01-24T07:17:22.189Z,100799
2018-01-24T07:19:50.704Z,100803
2018-01-24T07:22:19.181Z,100801
2018-01-24T07:24:47.713Z,100794
2018-01-24T07:27:16.965Z,100807
2018-01-24T07:29:45.437Z,100805
2018-01-24T07:32:14.163Z,100805
2018-01-24T07:34:42.603Z,100804
2018-01-24T07:37:11.017Z,100812
2018-01-24T07:39:39.579Z,100806
2018-01-24T07:42:08.105Z,100811
2018-01-24T07:44:37.544Z,100814
2018-01-24T07:47:06.313Z,100806
2018-01-24T07:49:34.835Z,100803
2018-01-24T07:52:03.402Z,100794
2018-01-24T07:54:32.157Z,100795
2018-01-24T07:57:01.809Z,100793
2018-01-24T07:59:30.709Z,100789
2018-01-24T08:01:59.180Z,100783
2018-01-24T08:04:27.765Z,100792
2018-01-24T08:06:56.276Z,100803
2018-01-24T08:09:24.800Z,100789
2018-01-24T08:11:53.254Z,100792
2018-01-24T08:14:22.052Z,100786
2018-01-24T08:16:51.496Z,100785
2018-01-24T08:19:20.623Z,100784
2018-01-24T08:21:49.107Z,100772
2018-01-24T08:24:17.749Z,100766
2018-01-24T08:26:46.201Z,100766
2018-01-24T08:29:15.579Z,100773
2018-01-24T08:31:44.030Z,100763
2018-01-24T08:34:12.726Z,100769
2018-01-24T08:36:41.181Z,100761
2018-01-24T08:39:09.894Z,100735
2018-01-24T08:41:38.767Z,100766
2018-01-24T08:44:07.381Z,100749
2018-01-24T08:46:36.337Z,100764
2018-01-24T08:49:04.793Z,100771
2018-01-24T08:51:33.945Z,100755
2018-01-24T08:54:02.497Z,100754
2018-01-24T08:56:30.924Z,100764
2018-01-24T08:58:59.460Z,100760
2018-01-24T09:01:28.668Z,100747
2018-01-24T09:03:57.105Z,100758
2018-01-24T09:06:25.534Z,100754
2018-01-24T09:08:53.985Z,100741
2018-01-24T09:11:23.219Z,100746
2018-01-24T09:13:51.762Z,100748
2018-01-24T09:16:20.976Z,100736
2018-01-24T09:18:49.412Z,100723
2018-01-24T09:21:18.386Z,100731
2018-01-24T09:23:47.157Z,100736
2018-01-24T09:26:16.014Z,100739
2018-01-24T09:28:45.233Z,100745
2018-01-24T09:31:13.769Z,100740
2018-01-24T09:33:42.290Z,100728
2018-01-24T09:36:11.092Z,100732
2018-01-24T09:38:41.020Z,100729
2018-01-24T09:41:09.516Z,100718
2018-01-24T09:43:38.231Z,100727
2018-01-24T09:46:06.733Z,100721
2018-01-24T09:48:36.225Z,100728
2018-01-24T09:51:04.931Z,100720
2018-01-24T09:53:34.177Z,100720
2018-01-24T09:56:03.049Z,100723
2018-01-24T09:58:32.098Z,100708
2018-01-24T10:01:00.578Z,100701
2018-01-24T10:03:29.011Z,100706
2018-01-24T10:05:57.880Z,100701
2018-01-24T10:08:26.384Z,100715
2018-01-24T10:10:54.893Z,100703
2018-01-24T10:13:23.337Z,100696
2018-01-24T10:15:51.838Z,100693
2018-01-24T10:18:20.309Z,100683
2018-01-24T10:20:49.730Z,100686
2018-01-24T10:23:18.616Z,100678
2018-01-24T10:29:09.204Z,100670
2018-01-24T10:31:38.799Z,100671
2018-01-24T10:34:08.119Z,100652
2018-01-24T10:36:37.840Z,100650
2018-01-24T10:39:07.296Z,100658
2018-01-24T10:41:36.854Z,100660
2018-01-24T10:44:05.153Z,100657
2018-01-24T10:46:34.489Z,100649
2018-01-24T10:49:04.864Z,100655
2018-01-24T10:51:33.169Z,100655
2018-01-24T10:54:01.438Z,100640
2018-01-24T10:56:29.933Z,100650
2018-01-24T10:58:58.881Z,100642
2018-01-24T11:01:27.168Z,100620
2018-01-24T11:03:55.928Z,100622
2018-01-24T11:06:24.213Z,100619
2018-01-24T11:08:52.518Z,100629
2018-01-24T11:11:22.595Z,100615
2018-01-24T11:13:51.554Z,100609
2018-01-24T11:16:20.313Z,100607
2018-01-24T11:18:48.961Z,100610
2018-01-24T11:21:17.535Z,100601
2018-01-24T11:23:47.508Z,100597
2018-01-24T11:26:17.010Z,100589
2018-01-24T11:28:45.601Z,100602
2018-01-24T11:31:14.064Z,100599
2018-01-24T11:33:43.329Z,100588
2018-01-24T11:37:15.643Z,100577
2018-01-24T11:39:44.649Z,100565
2018-01-24T11:42:13.276Z,100564
2018-01-24T11:44:42.512Z,100575
2018-01-24T11:47:11.156Z,100574
2018-01-24T11:49:39.969Z,100564
2018-01-24T11:52:08.977Z,100572
2018-01-24T11:54:37.465Z,100577
2018-01-24T11:57:05.817Z,100577
2018-01-24T11:59:35.691Z,100558
2018-01-24T12:02:04.476Z,100622
2018-01-24T12:04:33.198Z,100557
2018-01-24T12:07:01.604Z,100545
2018-01-24T12:09:30.705Z,100539
2018-01-24T12:11:59.541Z,100544
2018-01-24T12:14:29.049Z,100539
2018-01-24T12:16:57.714Z,100528
2018-01-24T12:19:26.128Z,100513
2018-01-24T12:21:55.505Z,100542
2018-01-24T12:24:24.361Z,100520
2018-01-24T12:26:53.058Z,100509
2018-01-24T12:29:21.409Z,100504
2018-01-24T12:31:51.013Z,100505
2018-01-24T12:34:19.369Z,100551
2018-01-24T12:36:49.069Z,100504
2018-01-24T12:39:17.748Z,100510
2018-01-24T12:41:46.344Z,100506
2018-01-24T12:44:14.719Z,100491
2018-01-24T12:46:43.795Z,100497
2018-01-24T12:49:13.265Z,100488
2018-01-24T12:51:41.653Z,100476
2018-01-24T12:54:09.996Z,100474
2018-01-24T12:56:39.457Z,100458
2018-01-24T12:59:07.769Z,100455
2018-01-24T13:01:37.098Z,100454
2018-01-24T13:04:06.829Z,100441
2018-01-24T13:06:35.134Z,100455
2018-01-24T13:09:04.401Z,100449
2018-01-24T13:11:32.749Z,100444
2018-01-24T13:14:02.017Z,100425
2018-01-24T13:16:30.664Z,100434
2018-01-24T13:18:59.249Z,100422
2018-01-24T13:21:27.544Z,100420
2018-01-24T13:23:56.225Z,100419
2018-01-24T13:26:24.556Z,100425
2018-01-24T13:28:53.240Z,100410
2018-01-24T13:31:21.672Z,100407
2018-01-24T13:33:50.353Z,100408
2018-01-24T13:36:18.996Z,100396
2018-01-24T13:38:47.356Z,100392
2018-01-24T13:41:17.681Z,100364
2018-01-24T13:43:46.256Z,100388
2018-01-24T13:46:15.941Z,100384
2018-01-24T13:48:44.364Z,100390
2018-01-24T13:51:12.644Z,100380
2018-01-24T13:53:41.700Z,100384
2018-01-24T13:56:10.149Z,100383
2018-01-24T13:58:39.494Z,100375
2018-01-24T14:01:08.309Z,100365
2018-01-24T14:03:36.773Z,100352
2018-01-24T14:06:05.061Z,100350
2018-01-24T14:08:33.359Z,100355
2018-01-24T14:11:01.712Z,100358
2018-01-24T14:13:30.256Z,100354
2018-01-24T14:15:58.526Z,100351
2018-01-24T14:18:26.929Z,100340
2018-01-24T14:20:55.529Z,100338
2018-01-24T14:23:24.089Z,100341
2018-01-24T14:25:52.640Z,100357
2018-01-24T14:28:21.677Z,100361
2018-01-24T14:30:49.967Z,100366
2018-01-24T14:33:18.247Z,100345
2018-01-24T14:35:46.836Z,100398
2018-01-24T14:38:15.136Z,100347
2018-01-24T14:40:43.952Z,100340
2018-01-24T14:43:12.812Z,100341
2018-01-24T14:45:45.392Z,100339
2018-01-24T14:48:14.217Z,100338
2018-01-24T14:50:43.383Z,100340
2018-01-24T14:53:12.620Z,100350
2018-01-24T14:55:41.647Z,100323
2018-01-24T14:58:09.956Z,100341
2018-01-24T15:00:38.356Z,100335
2018-01-24T15:03:07.565Z,100330
2018-01-24T15:05:36.597Z,100324
2018-01-24T15:08:06.006Z,100325
2018-01-24T15:10:35.792Z,100316
2018-01-24T15:13:04.532Z,100320
2018-01-24T15:15:33.080Z,100319
2018-01-24T15:18:01.456Z,100324
2018-01-24T15:20:30.032Z,100316
2018-01-24T15:22:58.541Z,100308
2018-01-24T15:25:27.280Z,100306
2018-01-24T15:27:55.683Z,100313
2018-01-24T15:30:27.185Z,100302
2018-01-24T15:32:56.214Z,100312
2018-01-24T15:35:24.585Z,100295
2018-01-24T15:37:53.141Z,100295
2018-01-24T15:40:22.517Z,100298
2018-01-24T15:42:50.985Z,100290
2018-01-24T15:45:19.566Z,100267
2018-01-24T15:47:47.925Z,100283
2018-01-24T15:50:17.213Z,100288
2018-01-24T15:52:45.809Z,100279
2018-01-24T15:55:14.452Z,100263
2018-01-24T15:57:44.884Z,100271
2018-01-24T16:00:13.584Z,100268
2018-01-24T16:02:41.910Z,100263
2018-01-24T16:05:11.042Z,100273
2018-01-24T16:07:40.369Z,100255
2018-01-24T16:10:08.789Z,100261
2018-01-24T16:12:37.209Z,100268
2018-01-24T16:15:05.919Z,100272
2018-01-24T16:17:35.034Z,100265
2018-01-24T16:20:03.402Z,100256
2018-01-24T16:22:31.738Z,100255
2018-01-24T16:25:00.057Z,100256
2018-01-24T16:27:28.350Z,100253
2018-01-24T16:29:56.813Z,100243
2018-01-24T16:32:25.074Z,100255
2018-01-24T16:34:53.569Z,100243
2018-01-24T16:37:23.694Z,100252
2018-01-24T16:39:52.030Z,100232
2018-01-24T16:42:20.295Z,100261
2018-01-24T16:44:48.648Z,100246
2018-01-24T16:47:17.242Z,100231
2018-01-24T16:49:45.828Z,100260
2018-01-24T16:52:14.378Z,100292
2018-01-24T16:54:43.121Z,100258
2018-01-24T16:57:13.689Z,100246
2018-01-24T16:59:42.377Z,100242
2018-01-24T17:02:10.718Z,100242
2018-01-24T17:04:38.996Z,100243
2018-01-24T17:07:07.516Z,100235
2018-01-24T17:09:36.733Z,100228
2018-01-24T17:12:05.156Z,100228
2018-01-24T17:14:33.433Z,100221
2018-01-24T17:17:01.705Z,100227
2018-01-24T17:19:30.087Z,100230
2018-01-24T17:22:00.333Z,100216
2018-01-24T17:24:29.364Z,100203
2018-01-24T17:26:57.647Z,100194
2018-01-24T17:29:25.917Z,100190
2018-01-24T17:31:54.181Z,100184
2018-01-24T17:34:22.473Z,100199
2018-01-24T17:36:50.761Z,100188
2018-01-24T17:39:19.045Z,100178
2018-01-24T17:41:47.342Z,100162
2018-01-24T17:44:15.649Z,100169
2018-01-24T17:46:44.706Z,100156
2018-01-24T17:49:13.008Z,100153
2018-01-24T17:51:41.297Z,100158
2018-01-24T17:54:10.417Z,100167
2018-01-24T17:56:38.741Z,100156
2018-01-24T17:59:08.569Z,100154
2018-01-24T18:01:37.940Z,100141
2018-01-24T18:04:06.393Z,100146
2018-01-24T18:06:35.089Z,100150
2018-01-24T18:09:04.395Z,100147
2018-01-24T18:11:35.313Z,100159
2018-01-24T18:14:03.606Z,100155
2018-01-24T18:16:31.960Z,100147
2018-01-24T18:19:00.565Z,100144
2018-01-24T18:21:29.102Z,100148
2018-01-24T18:23:57.610Z,100149
2018-01-24T18:26:26.749Z,100152
2018-01-24T18:28:55.145Z,100139
2018-01-24T18:31:23.916Z,100171
2018-01-24T18:33:52.220Z,100136
2018-01-24T18:36:21.248Z,100129
2018-01-24T18:38:49.659Z,100139
2018-01-24T18:41:17.996Z,100131
2018-01-24T18:43:47.013Z,100128
2018-01-24T18:46:15.308Z,100142
2018-01-24T18:48:44.613Z,100132
2018-01-24T18:51:13.589Z,100135
2018-01-24T18:53:42.124Z,100125
2018-01-24T18:56:10.469Z,100141
2018-01-24T18:58:38.773Z,100130
2018-01-24T19:01:07.349Z,100145
2018-01-24T19:03:36.685Z,100130
2018-01-24T19:06:05.210Z,100132
2018-01-24T19:08:33.765Z,100147
2018-01-24T19:11:02.068Z,100138
2018-01-24T19:13:30.397Z,100119
2018-01-24T19:16:00.199Z,100127
2018-01-24T19:18:28.727Z,100130
2018-01-24T19:20:57.207Z,100121
2018-01-24T19:23:26.443Z,100118
2018-01-24T19:25:55.141Z,100130
2018-01-24T19:28:25.337Z,100117
2018-01-24T19:30:53.689Z,100115
2018-01-24T19:33:22.161Z,100111
2018-01-24T19:35:50.490Z,100109
2018-01-24T19:38:19.474Z,100102
2018-01-24T19:40:48.863Z,100094
2018-01-24T19:43:17.229Z,100092
2018-01-24T19:45:45.569Z,100094
2018-01-24T19:48:14.389Z,100082
2018-01-24T19:50:43.109Z,100082
2018-01-24T19:53:11.774Z,100085
2018-01-24T19:55:40.469Z,100078
2018-01-24T19:58:08.870Z,100074
2018-01-24T20:00:37.173Z,100081
2018-01-24T20:03:12.437Z,100057
2018-01-24T20:05:41.532Z,100085
2018-01-24T20:08:10.749Z,100044
2018-01-24T20:10:39.742Z,100083
2018-01-24T20:13:08.888Z,100078
2018-01-24T20:15:37.246Z,100085
2018-01-24T20:18:05.665Z,100087
2018-01-24T20:20:34.902Z,100053
